sensor_id;sensor_type;location;lat;lon;timestamp;temperature;humidity
29917;DHT22;16786;49.466;11.068;2022-12-20T00:01:34;1.70;99.90
29917;DHT22;16786;49.466;11.068;2022-12-20T00:04:03;1.80;99.90
29917;DHT22;16786;49.466;11.068;2022-12-20T00:06:35;1.80;99.90
29917;DHT22;16786;49.466;11.068;2022-12-20T00:09:05;1.80;99.90
29917;DHT22;16786;49.466;11.068;2022-12-20T00:11:33;1.80;99.90
29917;DHT22;16786;49.466;11.068;2022-12-20T00:14:00;1.80;99.90
29917;DHT22;16786;49.466;11.068;2022-12-20T00:16:28;1.80;99.90
29917;DHT22;16786;49.466;11.068;2022-12-20T00:18:58;1.80;99.90
29917;DHT22;16786;49.466;11.068;2022-12-20T00:21:26;1.80;99.90
29917;DHT22;16786;49.466;11.068;2022-12-20T00:23:55;1.80;99.90
29917;DHT22;16786;49.466;11.068;2022-12-20T00:26:25;1.80;99.90
29917;DHT22;16786;49.466;11.068;2022-12-20T00:28:52;1.80;99.90
29917;DHT22;16786;49.466;11.068;2022-12-20T00:31:21;1.90;99.90
29917;DHT22;16786;49.466;11.068;2022-12-20T00:33:51;1.90;99.90
29917;DHT22;16786;49.466;11.068;2022-12-20T00:36:20;1.90;99.90
29917;DHT22;16786;49.466;11.068;2022-12-20T00:38:49;1.90;99.90
29917;DHT22;16786;49.466;11.068;2022-12-20T00:41:19;1.90;99.90
29917;DHT22;16786;49.466;11.068;2022-12-20T00:43:48;1.90;99.90
29917;DHT22;16786;49.466;11.068;2022-12-20T00:46:17;1.90;99.90
29917;DHT22;16786;49.466;11.068;2022-12-20T00:48:46;1.90;99.90
29917;DHT22;16786;49.466;11.068;2022-12-20T00:51:16;1.90;99.90
29917;DHT22;16786;49.466;11.068;2022-12-20T00:53:45;1.90;99.90
29917;DHT22;16786;49.466;11.068;2022-12-20T00:56:13;1.90;99.90
29917;DHT22;16786;49.466;11.068;2022-12-20T00:58:41;1.90;99.90
29917;DHT22;16786;49.466;11.068;2022-12-20T01:01:24;2.00;99.90
29917;DHT22;16786;49.466;11.068;2022-12-20T01:03:52;2.00;99.90
29917;DHT22;16786;49.466;11.068;2022-12-20T01:06:21;2.00;99.90
29917;DHT22;16786;49.466;11.068;2022-12-20T01:08:49;2.00;99.90
29917;DHT22;16786;49.466;11.068;2022-12-20T01:11:25;2.00;99.90
29917;DHT22;16786;49.466;11.068;2022-12-20T01:13:55;2.00;99.90
29917;DHT22;16786;49.466;11.068;2022-12-20T01:16:31;2.00;99.90
29917;DHT22;16786;49.466;11.068;2022-12-20T01:18:59;2.00;99.90
29917;DHT22;16786;49.466;11.068;2022-12-20T01:21:28;2.10;99.90
29917;DHT22;16786;49.466;11.068;2022-12-20T01:23:55;2.10;99.90
29917;DHT22;16786;49.466;11.068;2022-12-20T01:26:25;2.10;99.90
29917;DHT22;16786;49.466;11.068;2022-12-20T01:28:55;2.00;99.90
29917;DHT22;16786;49.466;11.068;2022-12-20T01:31:23;2.00;99.90
29917;DHT22;16786;49.466;11.068;2022-12-20T01:33:51;2.00;99.90
29917;DHT22;16786;49.466;11.068;2022-12-20T01:36:25;2.00;99.90
29917;DHT22;16786;49.466;11.068;2022-12-20T01:39:02;1.90;99.90
29917;DHT22;16786;49.466;11.068;2022-12-20T01:41:31;1.90;99.90
29917;DHT22;16786;49.466;11.068;2022-12-20T01:44:01;1.90;99.90
29917;DHT22;16786;49.466;11.068;2022-12-20T01:46:34;1.80;99.90
29917;DHT22;16786;49.466;11.068;2022-12-20T01:51:59;1.80;99.90
29917;DHT22;16786;49.466;11.068;2022-12-20T01:54:31;1.80;99.90
29917;DHT22;16786;49.466;11.068;2022-12-20T01:57:04;1.70;99.90
29917;DHT22;16786;49.466;11.068;2022-12-20T01:59:36;1.70;99.90
29917;DHT22;16786;49.466;11.068;2022-12-20T02:02:08;1.70;99.90
29917;DHT22;16786;49.466;11.068;2022-12-20T02:04:36;1.60;99.90
29917;DHT22;16786;49.466;11.068;2022-12-20T02:07:05;1.60;99.90
29917;DHT22;16786;49.466;11.068;2022-12-20T02:09:35;1.60;99.90
29917;DHT22;16786;49.466;11.068;2022-12-20T02:12:14;1.60;99.90
29917;DHT22;16786;49.466;11.068;2022-12-20T02:31:04;1.80;99.90
29917;DHT22;16786;49.466;11.068;2022-12-20T02:33:34;1.80;99.90
29917;DHT22;16786;49.466;11.068;2022-12-20T02:36:03;1.80;99.90
29917;DHT22;16786;49.466;11.068;2022-12-20T02:38:31;1.90;99.90
29917;DHT22;16786;49.466;11.068;2022-12-20T02:41:17;1.90;99.90
29917;DHT22;16786;49.466;11.068;2022-12-20T02:43:50;1.90;99.90
29917;DHT22;16786;49.466;11.068;2022-12-20T02:46:39;1.90;99.90
29917;DHT22;16786;49.466;11.068;2022-12-20T02:49:14;1.90;99.90
29917;DHT22;16786;49.466;11.068;2022-12-20T02:51:45;1.90;99.90
29917;DHT22;16786;49.466;11.068;2022-12-20T02:54:14;1.90;99.90
29917;DHT22;16786;49.466;11.068;2022-12-20T02:57:04;1.90;99.90
29917;DHT22;16786;49.466;11.068;2022-12-20T02:59:54;1.90;99.90
29917;DHT22;16786;49.466;11.068;2022-12-20T03:02:24;1.90;99.90
29917;DHT22;16786;49.466;11.068;2022-12-20T03:04:52;1.90;99.90
29917;DHT22;16786;49.466;11.068;2022-12-20T03:07:22;1.80;99.90
29917;DHT22;16786;49.466;11.068;2022-12-20T03:09:49;1.80;99.90
29917;DHT22;16786;49.466;11.068;2022-12-20T03:12:17;1.80;99.90
29917;DHT22;16786;49.466;11.068;2022-12-20T03:14:44;1.80;99.90
29917;DHT22;16786;49.466;11.068;2022-12-20T03:17:13;1.80;99.90
29917;DHT22;16786;49.466;11.068;2022-12-20T03:19:41;1.90;99.90
29917;DHT22;16786;49.466;11.068;2022-12-20T03:22:08;1.80;99.90
29917;DHT22;16786;49.466;11.068;2022-12-20T03:24:35;1.90;99.90
29917;DHT22;16786;49.466;11.068;2022-12-20T03:27:08;1.90;99.90
29917;DHT22;16786;49.466;11.068;2022-12-20T03:29:36;1.90;99.90
29917;DHT22;16786;49.466;11.068;2022-12-20T03:32:04;1.90;99.90
29917;DHT22;16786;49.466;11.068;2022-12-20T03:34:31;1.90;99.90
29917;DHT22;16786;49.466;11.068;2022-12-20T03:37:00;1.90;99.90
29917;DHT22;16786;49.466;11.068;2022-12-20T03:39:27;1.90;99.90
29917;DHT22;16786;49.466;11.068;2022-12-20T03:41:55;1.90;99.90
29917;DHT22;16786;49.466;11.068;2022-12-20T03:44:22;2.00;99.90
29917;DHT22;16786;49.466;11.068;2022-12-20T03:46:51;1.90;99.90
29917;DHT22;16786;49.466;11.068;2022-12-20T03:49:19;2.00;99.90
29917;DHT22;16786;49.466;11.068;2022-12-20T03:51:50;2.00;99.90
29917;DHT22;16786;49.466;11.068;2022-12-20T03:54:18;2.00;99.90
29917;DHT22;16786;49.466;11.068;2022-12-20T03:57:06;2.00;99.90
29917;DHT22;16786;49.466;11.068;2022-12-20T03:59:33;2.00;99.90
29917;DHT22;16786;49.466;11.068;2022-12-20T04:02:03;2.00;99.90
29917;DHT22;16786;49.466;11.068;2022-12-20T04:04:30;2.00;99.90
29917;DHT22;16786;49.466;11.068;2022-12-20T04:06:58;2.00;99.90
29917;DHT22;16786;49.466;11.068;2022-12-20T04:09:26;2.00;99.90
29917;DHT22;16786;49.466;11.068;2022-12-20T04:12:00;2.00;99.90
29917;DHT22;16786;49.466;11.068;2022-12-20T04:14:28;1.90;99.90
29917;DHT22;16786;49.466;11.068;2022-12-20T04:16:56;1.90;99.90
29917;DHT22;16786;49.466;11.068;2022-12-20T04:19:23;1.90;99.90
29917;DHT22;16786;49.466;11.068;2022-12-20T04:21:50;1.90;99.90
29917;DHT22;16786;49.466;11.068;2022-12-20T04:24:19;1.80;99.90
29917;DHT22;16786;49.466;11.068;2022-12-20T04:26:56;1.80;99.90
29917;DHT22;16786;49.466;11.068;2022-12-20T04:29:24;1.80;99.90
29917;DHT22;16786;49.466;11.068;2022-12-20T04:31:51;1.80;99.90
29917;DHT22;16786;49.466;11.068;2022-12-20T04:34:20;1.80;99.90
29917;DHT22;16786;49.466;11.068;2022-12-20T04:36:48;1.80;99.90
29917;DHT22;16786;49.466;11.068;2022-12-20T04:39:24;1.90;99.90
29917;DHT22;16786;49.466;11.068;2022-12-20T04:42:10;1.80;99.90
29917;DHT22;16786;49.466;11.068;2022-12-20T04:44:38;1.80;99.90
29917;DHT22;16786;49.466;11.068;2022-12-20T04:47:06;1.80;99.90
29917;DHT22;16786;49.466;11.068;2022-12-20T04:49:33;1.80;99.90
29917;DHT22;16786;49.466;11.068;2022-12-20T04:52:01;1.90;99.90
29917;DHT22;16786;49.466;11.068;2022-12-20T04:54:48;1.90;99.90
29917;DHT22;16786;49.466;11.068;2022-12-20T04:57:21;1.90;99.90
29917;DHT22;16786;49.466;11.068;2022-12-20T04:59:49;1.90;99.90
29917;DHT22;16786;49.466;11.068;2022-12-20T05:02:17;1.90;99.90
29917;DHT22;16786;49.466;11.068;2022-12-20T05:04:50;1.90;99.90
29917;DHT22;16786;49.466;11.068;2022-12-20T05:07:17;1.90;99.90
29917;DHT22;16786;49.466;11.068;2022-12-20T05:09:50;1.80;99.90
29917;DHT22;16786;49.466;11.068;2022-12-20T05:12:17;1.80;99.90
29917;DHT22;16786;49.466;11.068;2022-12-20T05:14:45;1.80;99.90
29917;DHT22;16786;49.466;11.068;2022-12-20T05:17:14;1.80;99.90
29917;DHT22;16786;49.466;11.068;2022-12-20T05:19:42;1.80;99.90
29917;DHT22;16786;49.466;11.068;2022-12-20T05:22:11;1.70;99.90
29917;DHT22;16786;49.466;11.068;2022-12-20T05:25:09;1.70;99.90
29917;DHT22;16786;49.466;11.068;2022-12-20T05:27:59;1.70;99.90
29917;DHT22;16786;49.466;11.068;2022-12-20T05:30:30;1.70;99.90
29917;DHT22;16786;49.466;11.068;2022-12-20T05:32:58;1.70;99.90
29917;DHT22;16786;49.466;11.068;2022-12-20T05:35:25;1.80;99.90
29917;DHT22;16786;49.466;11.068;2022-12-20T05:37:59;1.80;99.90
29917;DHT22;16786;49.466;11.068;2022-12-20T05:40:28;1.80;99.90
29917;DHT22;16786;49.466;11.068;2022-12-20T05:42:56;1.80;99.90
29917;DHT22;16786;49.466;11.068;2022-12-20T05:45:33;1.80;99.90
29917;DHT22;16786;49.466;11.068;2022-12-20T05:48:05;1.80;99.90
29917;DHT22;16786;49.466;11.068;2022-12-20T05:50:35;1.90;99.90
29917;DHT22;16786;49.466;11.068;2022-12-20T05:53:21;1.90;99.90
29917;DHT22;16786;49.466;11.068;2022-12-20T05:55:53;1.90;99.90
29917;DHT22;16786;49.466;11.068;2022-12-20T05:58:26;1.90;99.90
29917;DHT22;16786;49.466;11.068;2022-12-20T06:01:01;2.00;99.90
29917;DHT22;16786;49.466;11.068;2022-12-20T06:03:32;2.00;99.90
29917;DHT22;16786;49.466;11.068;2022-12-20T06:06:03;2.00;99.90
29917;DHT22;16786;49.466;11.068;2022-12-20T06:08:37;2.10;99.90
29917;DHT22;16786;49.466;11.068;2022-12-20T06:11:08;2.10;99.90
29917;DHT22;16786;49.466;11.068;2022-12-20T06:13:46;2.10;99.90
29917;DHT22;16786;49.466;11.068;2022-12-20T06:16:14;2.10;99.90
29917;DHT22;16786;49.466;11.068;2022-12-20T06:18:42;2.10;99.90
29917;DHT22;16786;49.466;11.068;2022-12-20T06:21:11;2.10;99.90
29917;DHT22;16786;49.466;11.068;2022-12-20T06:23:39;2.10;99.90
29917;DHT22;16786;49.466;11.068;2022-12-20T06:26:09;2.10;99.90
29917;DHT22;16786;49.466;11.068;2022-12-20T06:28:45;2.10;99.90
29917;DHT22;16786;49.466;11.068;2022-12-20T06:31:13;2.20;99.90
29917;DHT22;16786;49.466;11.068;2022-12-20T06:33:58;2.20;99.90
29917;DHT22;16786;49.466;11.068;2022-12-20T06:36:31;2.20;99.90
29917;DHT22;16786;49.466;11.068;2022-12-20T06:38:59;2.20;99.90
29917;DHT22;16786;49.466;11.068;2022-12-20T06:41:35;2.30;99.90
29917;DHT22;16786;49.466;11.068;2022-12-20T06:44:02;2.30;99.90
29917;DHT22;16786;49.466;11.068;2022-12-20T06:46:29;2.30;99.90
29917;DHT22;16786;49.466;11.068;2022-12-20T06:48:57;2.30;99.90
29917;DHT22;16786;49.466;11.068;2022-12-20T06:51:26;2.30;99.90
29917;DHT22;16786;49.466;11.068;2022-12-20T06:53:53;2.30;99.90
29917;DHT22;16786;49.466;11.068;2022-12-20T06:56:22;2.30;99.90
29917;DHT22;16786;49.466;11.068;2022-12-20T06:58:49;2.40;99.90
29917;DHT22;16786;49.466;11.068;2022-12-20T07:01:16;2.40;99.90
29917;DHT22;16786;49.466;11.068;2022-12-20T07:03:44;2.40;99.90
29917;DHT22;16786;49.466;11.068;2022-12-20T07:06:12;2.40;99.90
29917;DHT22;16786;49.466;11.068;2022-12-20T07:08:39;2.40;99.90
29917;DHT22;16786;49.466;11.068;2022-12-20T07:11:06;2.40;99.90
29917;DHT22;16786;49.466;11.068;2022-12-20T07:13:34;2.40;99.90
29917;DHT22;16786;49.466;11.068;2022-12-20T07:16:03;2.40;99.90
29917;DHT22;16786;49.466;11.068;2022-12-20T07:18:31;2.40;99.90
29917;DHT22;16786;49.466;11.068;2022-12-20T07:21:03;2.40;99.90
29917;DHT22;16786;49.466;11.068;2022-12-20T07:23:31;2.50;99.90
29917;DHT22;16786;49.466;11.068;2022-12-20T07:26:00;2.50;99.90
29917;DHT22;16786;49.466;11.068;2022-12-20T07:28:30;2.40;99.90
29917;DHT22;16786;49.466;11.068;2022-12-20T07:31:00;2.50;99.90
29917;DHT22;16786;49.466;11.068;2022-12-20T07:33:29;2.50;99.90
29917;DHT22;16786;49.466;11.068;2022-12-20T07:36:07;2.50;99.90
29917;DHT22;16786;49.466;11.068;2022-12-20T07:38:36;2.50;99.90
29917;DHT22;16786;49.466;11.068;2022-12-20T07:41:11;2.50;99.90
29917;DHT22;16786;49.466;11.068;2022-12-20T07:43:38;2.60;99.90
29917;DHT22;16786;49.466;11.068;2022-12-20T07:46:07;2.60;99.90
29917;DHT22;16786;49.466;11.068;2022-12-20T07:48:34;2.60;99.90
29917;DHT22;16786;49.466;11.068;2022-12-20T07:53:58;2.60;99.90
29917;DHT22;16786;49.466;11.068;2022-12-20T07:56:26;2.70;99.90
29917;DHT22;16786;49.466;11.068;2022-12-20T07:58:56;2.70;99.90
29917;DHT22;16786;49.466;11.068;2022-12-20T08:01:28;2.70;99.90
29917;DHT22;16786;49.466;11.068;2022-12-20T08:04:03;2.80;99.90
29917;DHT22;16786;49.466;11.068;2022-12-20T08:06:32;2.80;99.90
29917;DHT22;16786;49.466;11.068;2022-12-20T08:09:03;2.90;99.90
29917;DHT22;16786;49.466;11.068;2022-12-20T08:11:32;2.90;99.90
29917;DHT22;16786;49.466;11.068;2022-12-20T08:14:00;2.90;99.90
29917;DHT22;16786;49.466;11.068;2022-12-20T08:16:28;2.90;99.90
29917;DHT22;16786;49.466;11.068;2022-12-20T08:18:55;3.00;99.90
29917;DHT22;16786;49.466;11.068;2022-12-20T08:21:23;3.00;99.90
29917;DHT22;16786;49.466;11.068;2022-12-20T08:23:51;3.10;99.90
29917;DHT22;16786;49.466;11.068;2022-12-20T08:26:18;3.20;99.90
29917;DHT22;16786;49.466;11.068;2022-12-20T08:28:45;3.30;99.90
29917;DHT22;16786;49.466;11.068;2022-12-20T08:31:13;3.30;99.90
29917;DHT22;16786;49.466;11.068;2022-12-20T08:33:41;3.30;99.90
29917;DHT22;16786;49.466;11.068;2022-12-20T08:36:10;3.40;99.90
29917;DHT22;16786;49.466;11.068;2022-12-20T08:38:39;3.40;99.90
29917;DHT22;16786;49.466;11.068;2022-12-20T08:41:10;3.50;99.90
29917;DHT22;16786;49.466;11.068;2022-12-20T08:43:38;3.50;99.90
29917;DHT22;16786;49.466;11.068;2022-12-20T08:46:07;3.60;99.90
29917;DHT22;16786;49.466;11.068;2022-12-20T08:48:35;3.70;99.90
29917;DHT22;16786;49.466;11.068;2022-12-20T08:51:05;3.70;99.90
29917;DHT22;16786;49.466;11.068;2022-12-20T08:53:34;3.70;99.90
29917;DHT22;16786;49.466;11.068;2022-12-20T08:56:07;3.80;99.90
29917;DHT22;16786;49.466;11.068;2022-12-20T08:58:35;3.90;99.90
29917;DHT22;16786;49.466;11.068;2022-12-20T09:01:05;3.90;99.90
29917;DHT22;16786;49.466;11.068;2022-12-20T09:03:34;4.00;99.90
29917;DHT22;16786;49.466;11.068;2022-12-20T09:06:12;4.10;99.90
29917;DHT22;16786;49.466;11.068;2022-12-20T09:08:42;4.20;99.90
29917;DHT22;16786;49.466;11.068;2022-12-20T09:13:39;4.40;99.90
29917;DHT22;16786;49.466;11.068;2022-12-20T09:16:12;4.40;99.90
29917;DHT22;16786;49.466;11.068;2022-12-20T09:18:40;4.60;99.90
29917;DHT22;16786;49.466;11.068;2022-12-20T09:21:10;4.60;99.90
29917;DHT22;16786;49.466;11.068;2022-12-20T09:23:37;4.60;99.90
29917;DHT22;16786;49.466;11.068;2022-12-20T09:26:11;4.60;99.90
29917;DHT22;16786;49.466;11.068;2022-12-20T09:28:39;4.60;99.90
29917;DHT22;16786;49.466;11.068;2022-12-20T09:31:10;4.70;99.90
29917;DHT22;16786;49.466;11.068;2022-12-20T09:33:38;4.70;99.90
29917;DHT22;16786;49.466;11.068;2022-12-20T09:36:09;4.70;99.90
29917;DHT22;16786;49.466;11.068;2022-12-20T09:38:36;4.70;99.90
29917;DHT22;16786;49.466;11.068;2022-12-20T09:41:06;4.70;99.90
29917;DHT22;16786;49.466;11.068;2022-12-20T09:43:35;4.70;99.90
29917;DHT22;16786;49.466;11.068;2022-12-20T09:46:04;4.70;99.90
29917;DHT22;16786;49.466;11.068;2022-12-20T09:48:37;4.70;99.90
29917;DHT22;16786;49.466;11.068;2022-12-20T09:56:46;4.70;99.90
29917;DHT22;16786;49.466;11.068;2022-12-20T09:59:17;4.70;99.90
29917;DHT22;16786;49.466;11.068;2022-12-20T10:01:47;4.60;99.90
29917;DHT22;16786;49.466;11.068;2022-12-20T10:04:23;4.60;99.90
29917;DHT22;16786;49.466;11.068;2022-12-20T10:15:37;4.40;99.90
29917;DHT22;16786;49.466;11.068;2022-12-20T10:20:18;4.50;99.90
29917;DHT22;16786;49.466;11.068;2022-12-20T10:25:59;4.60;99.90
29917;DHT22;16786;49.466;11.068;2022-12-20T10:28:29;4.80;99.90
29917;DHT22;16786;49.466;11.068;2022-12-20T10:31:16;4.80;99.90
29917;DHT22;16786;49.466;11.068;2022-12-20T10:33:45;4.90;99.90
29917;DHT22;16786;49.466;11.068;2022-12-20T10:36:25;4.90;99.90
29917;DHT22;16786;49.466;11.068;2022-12-20T10:38:55;5.00;99.90
29917;DHT22;16786;49.466;11.068;2022-12-20T10:41:32;5.10;99.90
29917;DHT22;16786;49.466;11.068;2022-12-20T10:44:14;5.20;99.90
29917;DHT22;16786;49.466;11.068;2022-12-20T10:46:53;5.40;99.90
29917;DHT22;16786;49.466;11.068;2022-12-20T10:49:33;5.50;99.90
29917;DHT22;16786;49.466;11.068;2022-12-20T10:52:21;5.50;99.90
29917;DHT22;16786;49.466;11.068;2022-12-20T10:54:48;5.40;99.90
29917;DHT22;16786;49.466;11.068;2022-12-20T10:57:26;5.40;99.90
29917;DHT22;16786;49.466;11.068;2022-12-20T11:00:03;5.50;99.90
29917;DHT22;16786;49.466;11.068;2022-12-20T11:02:37;5.50;99.90
29917;DHT22;16786;49.466;11.068;2022-12-20T11:07:55;5.60;99.90
29917;DHT22;16786;49.466;11.068;2022-12-20T11:10:44;5.60;99.90
29917;DHT22;16786;49.466;11.068;2022-12-20T11:13:25;5.70;99.90
29917;DHT22;16786;49.466;11.068;2022-12-20T11:15:54;5.70;99.90
29917;DHT22;16786;49.466;11.068;2022-12-20T11:24:26;6.10;99.90
29917;DHT22;16786;49.466;11.068;2022-12-20T11:27:16;6.30;99.90
29917;DHT22;16786;49.466;11.068;2022-12-20T11:33:11;6.40;99.90
29917;DHT22;16786;49.466;11.068;2022-12-20T11:35:50;6.40;99.90
29917;DHT22;16786;49.466;11.068;2022-12-20T11:38:51;6.30;99.90
29917;DHT22;16786;49.466;11.068;2022-12-20T11:41:42;6.30;99.90
29917;DHT22;16786;49.466;11.068;2022-12-20T11:50:02;6.30;99.90
29917;DHT22;16786;49.466;11.068;2022-12-20T11:52:42;6.20;99.90
29917;DHT22;16786;49.466;11.068;2022-12-20T11:57:47;6.10;99.90
29917;DHT22;16786;49.466;11.068;2022-12-20T12:00:37;6.00;99.90
29917;DHT22;16786;49.466;11.068;2022-12-20T12:03:34;5.90;99.90
29917;DHT22;16786;49.466;11.068;2022-12-20T12:06:20;5.80;99.90
29917;DHT22;16786;49.466;11.068;2022-12-20T12:11:41;5.80;99.90
29917;DHT22;16786;49.466;11.068;2022-12-20T12:17:34;5.90;99.90
29917;DHT22;16786;49.466;11.068;2022-12-20T12:23:22;6.10;99.90
29917;DHT22;16786;49.466;11.068;2022-12-20T12:25:50;6.50;99.90
29917;DHT22;16786;49.466;11.068;2022-12-20T12:28:19;6.80;99.90
29917;DHT22;16786;49.466;11.068;2022-12-20T12:31:02;7.00;99.90
29917;DHT22;16786;49.466;11.068;2022-12-20T12:33:35;7.20;99.90
29917;DHT22;16786;49.466;11.068;2022-12-20T12:45:04;7.70;99.90
29917;DHT22;16786;49.466;11.068;2022-12-20T12:47:44;7.70;99.90
29917;DHT22;16786;49.466;11.068;2022-12-20T12:50:34;7.60;99.90
29917;DHT22;16786;49.466;11.068;2022-12-20T12:53:11;7.50;99.90
29917;DHT22;16786;49.466;11.068;2022-12-20T12:55:47;7.50;99.90
29917;DHT22;16786;49.466;11.068;2022-12-20T13:00:57;7.20;99.90
29917;DHT22;16786;49.466;11.068;2022-12-20T13:09:16;7.00;99.90
29917;DHT22;16786;49.466;11.068;2022-12-20T13:11:44;7.00;99.90
29917;DHT22;16786;49.466;11.068;2022-12-20T13:16:53;6.80;99.90
29917;DHT22;16786;49.466;11.068;2022-12-20T13:19:47;6.70;99.90
29917;DHT22;16786;49.466;11.068;2022-12-20T13:25:34;6.50;99.90
29917;DHT22;16786;49.466;11.068;2022-12-20T13:27:41;6.40;99.90
29917;DHT22;16786;49.466;11.068;2022-12-20T13:40:38;6.00;99.90
29917;DHT22;16786;49.466;11.068;2022-12-20T13:43:23;6.00;99.90
29917;DHT22;16786;49.466;11.068;2022-12-20T13:48:35;5.90;99.90
29917;DHT22;16786;49.466;11.068;2022-12-20T13:51:06;5.80;99.90
29917;DHT22;16786;49.466;11.068;2022-12-20T13:53:38;5.80;99.90
29917;DHT22;16786;49.466;11.068;2022-12-20T13:56:36;5.80;99.90
29917;DHT22;16786;49.466;11.068;2022-12-20T14:01:53;5.70;99.90
29917;DHT22;16786;49.466;11.068;2022-12-20T14:04:21;5.60;99.90
29917;DHT22;16786;49.466;11.068;2022-12-20T14:06:57;5.60;99.90
29917;DHT22;16786;49.466;11.068;2022-12-20T14:09:36;5.60;99.90
29917;DHT22;16786;49.466;11.068;2022-12-20T14:12:15;5.50;99.90
29917;DHT22;16786;49.466;11.068;2022-12-20T14:14:53;5.50;99.90
29917;DHT22;16786;49.466;11.068;2022-12-20T14:17:26;5.40;99.90
29917;DHT22;16786;49.466;11.068;2022-12-20T14:22:37;5.40;99.90
29917;DHT22;16786;49.466;11.068;2022-12-20T14:25:07;5.30;99.90
29917;DHT22;16786;49.466;11.068;2022-12-20T14:27:36;5.30;99.90
29917;DHT22;16786;49.466;11.068;2022-12-20T14:30:05;5.20;99.90
29917;DHT22;16786;49.466;11.068;2022-12-20T14:32:32;5.20;99.90
29917;DHT22;16786;49.466;11.068;2022-12-20T14:35:00;5.20;99.90
29917;DHT22;16786;49.466;11.068;2022-12-20T14:37:35;5.20;99.90
29917;DHT22;16786;49.466;11.068;2022-12-20T14:42:37;5.20;99.90
29917;DHT22;16786;49.466;11.068;2022-12-20T14:47:36;5.20;99.90
29917;DHT22;16786;49.466;11.068;2022-12-20T14:50:19;5.10;99.90
29917;DHT22;16786;49.466;11.068;2022-12-20T14:52:47;5.10;99.90
29917;DHT22;16786;49.466;11.068;2022-12-20T14:55:30;5.00;99.90
29917;DHT22;16786;49.466;11.068;2022-12-20T14:57:58;5.00;99.90
29917;DHT22;16786;49.466;11.068;2022-12-20T15:00:28;4.90;99.90
29917;DHT22;16786;49.466;11.068;2022-12-20T15:08:23;4.80;99.90
29917;DHT22;16786;49.466;11.068;2022-12-20T15:10:57;4.70;99.90
29917;DHT22;16786;49.466;11.068;2022-12-20T15:13:32;4.70;99.90
29917;DHT22;16786;49.466;11.068;2022-12-20T15:16:12;4.60;99.90
29917;DHT22;16786;49.466;11.068;2022-12-20T15:18:40;4.60;99.90
29917;DHT22;16786;49.466;11.068;2022-12-20T15:21:17;4.60;99.90
29917;DHT22;16786;49.466;11.068;2022-12-20T15:23:53;4.60;99.90
29917;DHT22;16786;49.466;11.068;2022-12-20T15:26:24;4.60;99.90
29917;DHT22;16786;49.466;11.068;2022-12-20T15:28:52;4.60;99.90
29917;DHT22;16786;49.466;11.068;2022-12-20T15:31:21;4.50;99.90
29917;DHT22;16786;49.466;11.068;2022-12-20T15:33:59;4.50;99.90
29917;DHT22;16786;49.466;11.068;2022-12-20T15:36:29;4.50;99.90
29917;DHT22;16786;49.466;11.068;2022-12-20T15:38:57;4.50;99.90
29917;DHT22;16786;49.466;11.068;2022-12-20T15:41:47;4.50;99.90
29917;DHT22;16786;49.466;11.068;2022-12-20T15:44:26;4.50;99.90
29917;DHT22;16786;49.466;11.068;2022-12-20T15:46:54;4.40;99.90
29917;DHT22;16786;49.466;11.068;2022-12-20T15:49:29;4.40;99.90
29917;DHT22;16786;49.466;11.068;2022-12-20T15:51:57;4.40;99.90
29917;DHT22;16786;49.466;11.068;2022-12-20T15:54:31;4.40;99.90
29917;DHT22;16786;49.466;11.068;2022-12-20T15:57:10;4.40;99.90
29917;DHT22;16786;49.466;11.068;2022-12-20T15:59:39;4.40;99.90
29917;DHT22;16786;49.466;11.068;2022-12-20T16:02:28;4.40;99.90
29917;DHT22;16786;49.466;11.068;2022-12-20T16:04:56;4.40;99.90
29917;DHT22;16786;49.466;11.068;2022-12-20T16:07:25;4.40;99.90
29917;DHT22;16786;49.466;11.068;2022-12-20T16:09:52;4.40;99.90
29917;DHT22;16786;49.466;11.068;2022-12-20T16:12:25;4.40;99.90
29917;DHT22;16786;49.466;11.068;2022-12-20T16:14:54;4.40;99.90
29917;DHT22;16786;49.466;11.068;2022-12-20T16:17:21;4.30;99.90
29917;DHT22;16786;49.466;11.068;2022-12-20T16:19:48;4.40;99.90
29917;DHT22;16786;49.466;11.068;2022-12-20T16:22:18;4.30;99.90
29917;DHT22;16786;49.466;11.068;2022-12-20T16:24:46;4.30;99.90
29917;DHT22;16786;49.466;11.068;2022-12-20T16:27:14;4.30;99.90
29917;DHT22;16786;49.466;11.068;2022-12-20T16:29:41;4.20;99.90
29917;DHT22;16786;49.466;11.068;2022-12-20T16:32:14;4.20;99.90
29917;DHT22;16786;49.466;11.068;2022-12-20T16:34:42;4.10;99.90
29917;DHT22;16786;49.466;11.068;2022-12-20T16:37:09;4.10;99.90
29917;DHT22;16786;49.466;11.068;2022-12-20T16:39:40;4.10;99.90
29917;DHT22;16786;49.466;11.068;2022-12-20T16:42:15;4.10;99.90
29917;DHT22;16786;49.466;11.068;2022-12-20T16:44:43;4.10;99.90
29917;DHT22;16786;49.466;11.068;2022-12-20T16:47:12;4.10;99.90
29917;DHT22;16786;49.466;11.068;2022-12-20T16:49:41;4.10;99.90
29917;DHT22;16786;49.466;11.068;2022-12-20T16:52:18;4.10;99.90
29917;DHT22;16786;49.466;11.068;2022-12-20T16:54:46;4.10;99.90
29917;DHT22;16786;49.466;11.068;2022-12-20T16:57:13;4.00;99.90
29917;DHT22;16786;49.466;11.068;2022-12-20T16:59:40;4.00;99.90
29917;DHT22;16786;49.466;11.068;2022-12-20T17:02:37;3.90;99.90
29917;DHT22;16786;49.466;11.068;2022-12-20T17:05:04;3.90;99.90
29917;DHT22;16786;49.466;11.068;2022-12-20T17:07:33;3.80;99.90
29917;DHT22;16786;49.466;11.068;2022-12-20T17:10:08;3.80;99.90
29917;DHT22;16786;49.466;11.068;2022-12-20T17:12:36;3.70;99.90
29917;DHT22;16786;49.466;11.068;2022-12-20T17:15:03;3.80;99.90
29917;DHT22;16786;49.466;11.068;2022-12-20T17:17:31;3.70;99.90
29917;DHT22;16786;49.466;11.068;2022-12-20T17:19:58;3.70;99.90
29917;DHT22;16786;49.466;11.068;2022-12-20T17:22:26;3.70;99.90
29917;DHT22;16786;49.466;11.068;2022-12-20T17:25:26;3.60;99.90
29917;DHT22;16786;49.466;11.068;2022-12-20T17:27:54;3.70;99.90
29917;DHT22;16786;49.466;11.068;2022-12-20T17:30:23;3.70;99.90
29917;DHT22;16786;49.466;11.068;2022-12-20T17:32:52;3.70;99.90
29917;DHT22;16786;49.466;11.068;2022-12-20T17:35:24;3.80;99.90
29917;DHT22;16786;49.466;11.068;2022-12-20T17:37:51;3.80;99.90
29917;DHT22;16786;49.466;11.068;2022-12-20T17:40:25;3.80;99.90
29917;DHT22;16786;49.466;11.068;2022-12-20T17:42:53;3.80;99.90
29917;DHT22;16786;49.466;11.068;2022-12-20T17:47:54;3.80;99.90
29917;DHT22;16786;49.466;11.068;2022-12-20T17:50:22;3.80;99.90
29917;DHT22;16786;49.466;11.068;2022-12-20T17:52:51;3.80;99.90
29917;DHT22;16786;49.466;11.068;2022-12-20T17:55:27;3.80;99.90
29917;DHT22;16786;49.466;11.068;2022-12-20T17:57:55;3.70;99.90
29917;DHT22;16786;49.466;11.068;2022-12-20T18:00:28;3.70;99.90
29917;DHT22;16786;49.466;11.068;2022-12-20T18:03:05;3.70;99.90
29917;DHT22;16786;49.466;11.068;2022-12-20T18:05:33;3.70;99.90
29917;DHT22;16786;49.466;11.068;2022-12-20T18:08:00;3.70;99.90